METAR AND TAF INFORMATION
METAR FOR NWWW
ADDS - METARS form results

(1615 UTC 28 September 2020)
Data provider http://aviationweather.gov/metar/data/
 
METAR text: NWWW 281600Z AUTO 15011KT 9999 -DZ FEW016 OVC030 19/18 Q1014 TEMPO 4000 SHRA BKN008 FEW018CB
Conditions at: NWWW (LA TONTOUTA NLLE, WS) observed 1600 UTC 28 September 2020
Temperature: 19.0°C (66°F)
Dewpoint: 18.0°C (64°F) [RH = 94%]
Pressure (altimeter): 29.94 inches Hg (1014.0 mb)
Winds: from the SSE (150 degrees) at 13 MPH (11 knots; 5.7 m/s)
Visibility: 6 or more miles (10+ km)
Ceiling: 3000 feet AGL
Clouds: few clouds at 1600 feet AGL
overcast cloud deck at 3000 feet AGL
Weather: -DZ  (light drizzle)

METAR text: NWWW 281530Z AUTO 15011KT 9999 -RA FEW018/// BKN026/// BKN032/// ///CB 19/18 Q1015 TEMPO 4000 SHRA BKN008 FEW018CB
Conditions at: NWWW (LA TONTOUTA NLLE, WS) observed 1530 UTC 28 September 2020
Temperature: 19.0°C (66°F)
Dewpoint: 18.0°C (64°F) [RH = 94%]
Pressure (altimeter): 29.97 inches Hg (1015.0 mb)
Winds: from the SSE (150 degrees) at 13 MPH (11 knots; 5.7 m/s)
Visibility: 6 or more miles (10+ km)
Ceiling: 2600 feet AGL
Clouds: few clouds at 1800 feet AGL
broken clouds at 2600 feet AGL
broken clouds at 3200 feet AGL
Weather: -RA  (light rain)

Forecast for: NWWW (LA TONTOUTA NLLE, WS)
Text: TAF NWWW 281100Z 2812/2912 14012KT 9999 FEW012 BKN025
Forecast period: 1200 UTC 28 September 2020 to 1200 UTC 29 September 2020
Forecast type: FROM: standard forecast or significant change
Winds: from the SE (140 degrees) at 14 MPH (12 knots; 6.2 m/s)
Visibility: 6 or more miles (10+ km)
Ceiling: 2500 feet AGL
Clouds: few clouds at 1200 feet AGL
broken clouds at 2500 feet AGL
Weather: no significant weather forecast for this period
Text: TEMPO 2812/2824 4000 SHRA BKN008 FEW018CB
Forecast period: 1200 UTC 28 September 2020 to 0000 UTC 29 September 2020
Forecast type: TEMPORARY: The following changes expected for less than half the time period
Visibility: 2.49 miles (4.01 km)
Ceiling: 800 feet AGL
Clouds: broken clouds at 800 feet AGL
few clouds at 1800 feet AGL
Weather: SHRA  (rain showers)

 AIRPORT MAP

 RUNWAY INFORMATION
Runway 11 Runway length 10663 ft Runway width 148 ft
Runway elevation 30 ft Runway displaced threshold 0 ft Runway heading 121
Runway 29 Runway length 10663 ft Runway width 148 ft
Runway elevation 52 ft Runway displaced threshold 0 ft Runway heading 301

 AIRPORT FREQUENCIES
Type APP Name TONTOUTA A Frequency 119.7 MHZ
Type GND Name GND Frequency 121.7 MHZ
Type INFO Name TONTOUTA I Frequency 128.2 MHZ
Type MISC Name VDF Frequency 118.1 MHZ
Type TWR Name TONTOUTA T Frequency 118.1 MHZ

 AIRPORT NEAR NAVIGATION AIDS
Type NDB Name La Tontouta Frequency 338 KHZ
Type NDB Name La Tontouta Frequency 354 KHZ
Type VOR-DME Name La Tontouta Frequency 112900 KHZ
Type NDB Name La Tontouta Frequency 326 KHZ